• Join FlightAware (Why Join?)
  • Login
  • US Flag 
09:28AM EST


 

Airport Tracker/Info


-or-


 

Live Flight TrackerFlight Track Log ✈ N244A ✈ 03-Jul-2013 ✈ KINT - KORL

Flight Track Log - Related Links

Times and Time Zones

All times are in EDT time to prevent confusion due to time zone crossing. See the N244A flight status page for this flight to view local times or setup timezone preferences in your user account.

Time Position Orientation Groundspeed Altitude Reporting Facility
EDT Latitude Longitude Course Direction KTS MPH feet Rate Location/Type
07:05PM 36.0564 -80.2581 140° Southeast 269 310 9,600  Level Atlanta Center
07:06PM 35.9942 -80.2044 145° Southeast 304 350 12,000 1,680 Climbing Atlanta Center
07:07PM 35.9217 -80.1514 149° Southeast 329 379 13,000 1,440 Climbing Atlanta Center
07:08PM 35.6662 -80.2333 180° South  Level FlightAware Approximate
07:08PM 35.8281 -80.0969 155° Southeast 350 403 14,900  Level Atlanta Center
07:09PM 35.5727 -80.2333 180° South  Level FlightAware Approximate
07:09PM 35.7331 -80.1222 192° South 335 386 17,600  Level Atlanta Center
07:10PM 35.6428 -80.1750 205° Southwest 335 386 20,200 2,100 Climbing Atlanta Center
07:11PM 35.5503 -80.2150 199° South 347 399 21,800 1,560 Climbing Atlanta Center
07:12PM 35.4558 -80.2628 202° Southwest 362 417 23,400 1,500 Climbing Atlanta Center
07:13PM 35.3531 -80.3183 204° Southwest 367 422 24,900 1,380 Climbing Atlanta Center
07:14PM 35.2522 -80.3661 201° Southwest 378 435 26,200 1,200 Climbing Atlanta Center
07:16PM 35.0275 -80.4792 202° Southwest 411 473 28,700 1,140 Climbing Jacksonville Center
07:17PM 34.9242 -80.5303 202° Southwest 411 473 29,900 1,080 Climbing Jacksonville Center
07:18PM 34.8186 -80.5839 203° Southwest 416 479 30,900 1,080 Climbing Jacksonville Center
07:19PM 34.7236 -80.6294 202° Southwest 401 461 32,100 900 Climbing Jacksonville Center
07:20PM 34.6183 -80.6850 203° Southwest 401 461 32,700 840 Climbing Jacksonville Center
07:21PM 34.5169 -80.7331 201° Southwest 422 486 33,800 780 Climbing Jacksonville Center
07:22PM 34.4047 -80.7583 191° South 417 480 34,300 720 Climbing Jacksonville Center
07:23PM 34.2900 -80.7689 184° South 417 480 35,300 780 Climbing Jacksonville Center
07:24PM 34.1692 -80.7817 185° South 403 464 35,900 720 Climbing Jacksonville Center
07:25PM 34.0589 -80.7919 184° South 403 464 36,800 600 Climbing Jacksonville Center
07:26PM 33.9422 -80.8072 186° South 408 470 37,200 600 Climbing Jacksonville Center
07:27PM 33.8297 -80.8175 184° South 408 470 38,000 360 Climbing Jacksonville Center
07:28PM 33.7153 -80.8303 185° South 408 470 38,000  Level Jacksonville Center
07:29PM 33.5986 -80.8453 186° South 413 475 38,000  Level Jacksonville Center
07:30PM 33.4736 -80.8558 184° South 427 491 38,000  Level Jacksonville Center
07:31PM 33.3508 -80.8733 187° South 441 507 38,000 -60 Level Jacksonville Center
07:32PM 33.2278 -80.8861 185° South 441 507 37,900  Descending Jacksonville Center
07:33PM 33.1111 -80.8961 184° South 451 519 38,000  Climbing Jacksonville Center
07:34PM 32.9861 -80.9089 185° South 456 525 38,000  Level Jacksonville Center
07:35PM 32.8611 -80.9242 186° South 462 532 38,000 -60 Level Jacksonville Center
07:36PM 32.7297 -80.9367 185° South 462 532 37,900  Descending Jacksonville Center
07:37PM 32.6025 -80.9519 186° South 462 532 38,000  Climbing Jacksonville Center
07:38PM 32.4733 -80.9644 185° South 462 532 38,000  Level Jacksonville Center
07:39PM 32.3378 -80.9772 185° South 457 526 38,000  Level Jacksonville Center
07:40PM 32.2064 -80.9872 184° South 459 528 38,000  Level Jacksonville Center
07:41PM 32.0878 -80.9994 185° South 475 547 38,000  Level Jacksonville Center
07:42PM 31.9397 -81.0147 185° South 481 554 38,000  Level Jacksonville Center
07:43PM 31.8125 -81.0319 187° South 475 547 38,000  Level Jacksonville Center
07:44PM 31.6958 -81.0442 185° South 475 547 38,000  Level Jacksonville Center
07:45PM 31.5542 -81.0567 184° South 476 548 38,000  Level Jacksonville Center
07:46PM 31.4372 -81.0689 185° South 470 541 38,000  Level Jacksonville Center
07:47PM 31.3061 -81.0858 186° South 470 541 38,000 -120 Level Jacksonville Center
07:48PM 31.1767 -81.1006 186° South 475 547 37,800 -1,200 Descending Jacksonville Center
07:49PM 31.0453 -81.1128 185° South 475 547 35,700 -2,280 Descending Jacksonville Center
07:50PM 30.9078 -81.1250 184° South 485 558 33,300 -2,400 Descending Jacksonville Center
07:51PM 30.7681 -81.1422 186° South 491 565 30,900 -2,400 Descending Jacksonville Center
07:52PM 30.6325 -81.1567 185° South 501 577 28,500 -2,400 Descending Jacksonville Center
07:53PM 30.4967 -81.1494 177° South 494 568 26,200 -2,100 Descending Jacksonville Center
07:54PM 30.3611 -81.1447 178° South 494 568 24,300 -1,200 Descending Jacksonville Center
07:55PM 30.2378 -81.1422 179° South 472 543 23,900 -900 Descending Jacksonville Center
07:56PM 30.1167 -81.1397 179° South 448 516 22,500 -1,860 Descending Jacksonville Center
07:57PM 29.9956 -81.1369 179° South 442 509 20,200 -1,800 Descending Jacksonville Center
07:58PM 29.8578 -81.1300 177° South 428 493 18,900 -1,200 Descending Jacksonville Center
07:59PM 29.7636 -81.1317 181° South 426 490 17,900 -1,860 Descending Jacksonville Center
08:00PM 29.6572 -81.1264 178° South 405 466 15,300 -3,180 Descending Jacksonville Center
08:01PM 29.5486 -81.1261 180° South 393 452 11,600 -2,400 Descending Jacksonville Center
08:02PM 29.4547 -81.1231 178° South 373 429 10,600 -600 Descending Jacksonville Center
08:03PM 29.3772 -81.1125 173° South 327 376 10,400 -720 Descending Jacksonville Center
08:04PM 29.3022 -81.1161 182° South 290 334 9,200 -1,200 Descending Jacksonville Center
08:05PM 29.2294 -81.1317 191° South 273 314 8,000 -1,200 Descending Jacksonville Center
08:06PM 29.1564 -81.1472 191° South 268 308 6,800 -1,260 Descending Jacksonville Center
08:07PM 29.0817 -81.1628 190° South 274 315 5,500 -600 Descending Jacksonville Center
08:09PM 28.9500 -81.1833 188° South 205 236 5,000 -240 Descending Orlando TRACON
08:10PM 28.9000 -81.2167 210° Southwest 238 274 4,900 -480 Descending Orlando TRACON
08:11PM 28.8667 -81.2667 233° Southwest 221 254 4,100 -960 Descending Orlando TRACON
08:12PM 28.8167 -81.3167 221° Southwest 226 260 3,000 -600 Descending Orlando TRACON
08:13PM 28.7833 -81.3667 233° Southwest 205 236 3,000  Level Orlando TRACON
08:14PM 28.7167 -81.4000 204° Southwest 216 249 3,000 -300 Level Orlando TRACON
08:15PM 28.6667 -81.4000 180° South 220 253 2,500 -540 Descending Orlando TRACON
08:16PM 28.6000 -81.4167 192° South 196 226 2,000 -480 Descending Orlando TRACON
08:17PM 28.5667 -81.4000 156° South 163 188 1,600 -480 Descending Orlando TRACON
08:18PM 28.5333 -81.3667 139° Southeast 152 175 1,100 -600 Descending Orlando TRACON
08:20PM 28.5455 -81.3329 127° Southeast  Level Estimated
08:27PM 28.5455 -81.3329 127° Southeast  Level Estimated
08:28PM 28.5455 -81.3329 127° Southeast  Level Estimated
08:29PM 28.5455 -81.3329 127° Southeast  Level Estimated
08:30PM 28.5455 -81.3329 127° Southeast  Level Estimated